Time;durP1;ratioP1;P1;durP2;ratioP2;P2;SDS_P1;SDS_P2;PMS_P1;PMS_P2;Temp;Humidity;BMP_temperature;BMP_pressure;BME280_temperature;BME280_humidity;BME280_pressure;Samples;Min_cycle;Max_cycle;Signal;HPM_P1;HPM_P2
2024/02/26 00:01:44;;;;;;;69.10;41.10;;;;;;;4.31;100.00;99135.31;183323;1236;46055;-82
2024/02/26 00:05:46;;;;;;;62.90;40.80;;;;;;;4.25;100.00;99133.50;182512;1235;58321;-83
2024/02/26 00:09:47;;;;;;;57.70;37.10;;;;;;;4.26;100.00;99133.41;182171;1235;46015;-84
2024/02/26 00:13:49;;;;;;;49.10;32.60;;;;;;;4.32;100.00;99132.29;182705;1235;45990;-82
2024/02/26 00:17:51;;;;;;;45.50;28.00;;;;;;;4.32;100.00;99132.63;183187;1238;46918;-83
2024/02/26 00:21:55;;;;;;;46.60;30.00;;;;;;;4.35;100.00;99130.14;182391;1237;46525;-82
2024/02/26 00:25:56;;;;;;;47.60;28.40;;;;;;;4.33;100.00;99128.16;182358;1238;59519;-84
2024/02/26 00:29:58;;;;;;;48.00;28.40;;;;;;;4.35;100.00;99128.70;182339;1239;46113;-82
2024/02/26 00:34:00;;;;;;;43.50;29.80;;;;;;;4.39;100.00;99128.57;182463;1235;46005;-84
2024/02/26 00:38:03;;;;;;;50.10;30.50;;;;;;;4.45;100.00;99131.14;182955;1239;45954;-84
2024/02/26 00:42:05;;;;;;;52.60;36.30;;;;;;;4.51;100.00;99126.66;182580;1235;45938;-84
2024/02/26 00:46:06;;;;;;;45.90;29.30;;;;;;;4.54;100.00;99126.78;181933;1235;59471;-84
2024/02/26 00:50:09;;;;;;;50.20;30.60;;;;;;;4.54;100.00;99125.56;182004;1236;46517;-84
2024/02/26 00:54:10;;;;;;;47.00;29.30;;;;;;;4.53;100.00;99123.70;182337;1236;46077;-84
2024/02/26 00:58:12;;;;;;;54.30;31.10;;;;;;;4.49;100.00;99118.70;182364;1235;46059;-84
2024/02/26 01:02:14;;;;;;;40.80;26.70;;;;;;;4.42;100.00;99113.60;182076;1234;46090;-84
2024/02/26 01:06:16;;;;;;;45.70;25.50;;;;;;;4.38;100.00;99100.95;182698;1234;58025;-83
2024/02/26 01:10:18;;;;;;;39.50;24.70;;;;;;;4.40;100.00;99100.27;183079;1235;46051;-82
2024/02/26 01:14:19;;;;;;;44.80;28.00;;;;;;;4.42;100.00;99102.37;182440;1240;46132;-84
2024/02/26 01:18:41;;;;;;;37.60;24.50;;;;;;;4.45;100.00;99109.70;182835;1235;46034;-83
2024/02/26 01:22:44;;;;;;;45.90;25.80;;;;;;;4.47;100.00;99111.53;183315;1236;45947;-84
2024/02/26 01:26:46;;;;;;;45.00;26.10;;;;;;;4.40;100.00;99115.34;182169;1238;57958;-83
2024/02/26 01:30:48;;;;;;;40.20;29.20;;;;;;;4.35;100.00;99113.66;182017;1238;46185;-83
2024/02/26 01:34:50;;;;;;;52.00;32.50;;;;;;;4.28;100.00;99112.35;182383;1235;46019;-83
2024/02/26 01:38:52;;;;;;;43.90;31.20;;;;;;;4.16;100.00;99108.52;182215;1240;45982;-84
2024/02/26 01:42:53;;;;;;;61.30;36.00;;;;;;;4.09;100.00;99110.08;182916;1235;45915;-84
2024/02/26 01:46:55;;;;;;;59.00;39.00;;;;;;;4.06;100.00;99105.05;183734;1238;57121;-84
2024/02/26 01:50:57;;;;;;;51.30;28.90;;;;;;;4.08;100.00;99100.89;182140;1234;46158;-84
2024/02/26 01:55:00;;;;;;;52.80;29.10;;;;;;;4.00;100.00;99095.79;183658;1235;45948;-80
2024/02/26 01:59:04;;;;;;;50.70;31.30;;;;;;;3.91;100.00;99095.05;182450;1239;45850;-84
2024/02/26 02:03:06;;;;;;;51.10;30.20;;;;;;;3.89;100.00;99093.84;182081;1240;46079;-84
2024/02/26 02:07:08;;;;;;;56.00;37.20;;;;;;;3.90;100.00;99092.67;182903;1235;59007;-84
2024/02/26 02:11:11;;;;;;;65.70;41.30;;;;;;;3.87;100.00;99092.02;182517;1235;46528;-83
2024/02/26 02:15:13;;;;;;;67.90;38.60;;;;;;;3.83;100.00;99095.11;182282;1235;44234;-84
2024/02/26 02:19:15;;;;;;;56.70;39.10;;;;;;;3.73;100.00;99097.40;182300;1235;46090;-84
2024/02/26 02:23:16;;;;;;;64.40;40.80;;;;;;;3.65;100.00;99097.09;182602;1238;46109;-81
2024/02/26 02:27:20;;;;;;;62.40;41.50;;;;;;;3.59;100.00;99094.72;182264;1235;57947;-84
2024/02/26 02:31:22;;;;;;;60.00;38.90;;;;;;;3.57;100.00;99098.35;182155;1234;46502;-84
2024/02/26 02:35:24;;;;;;;64.20;38.90;;;;;;;3.53;100.00;99094.98;182752;1238;46189;-82
2024/02/26 02:39:27;;;;;;;55.10;36.20;;;;;;;3.49;100.00;99091.40;182238;1235;45964;-83
2024/02/26 02:43:28;;;;;;;64.80;36.50;;;;;;;3.50;100.00;99089.59;182896;1236;45959;-83
2024/02/26 02:47:30;;;;;;;57.30;37.30;;;;;;;3.49;100.00;99084.88;182729;1235;59445;-83
2024/02/26 02:51:32;;;;;;;55.40;33.90;;;;;;;3.47;100.00;99079.66;182287;1235;46090;-82
2024/02/26 02:55:34;;;;;;;56.90;35.50;;;;;;;3.49;100.00;99074.23;182062;1238;46092;-84
2024/02/26 02:59:36;;;;;;;70.10;36.00;;;;;;;3.54;100.00;99074.77;182622;1236;46001;-82
2024/02/26 03:03:38;;;;;;;53.60;35.10;;;;;;;3.54;100.00;99073.02;183337;1236;46111;-83
2024/02/26 03:07:40;;;;;;;60.60;37.80;;;;;;;3.47;100.00;99075.81;182168;1235;59157;-82
2024/02/26 03:11:42;;;;;;;56.20;38.70;;;;;;;3.37;100.00;99077.74;182886;1240;45983;-81
2024/02/26 03:15:44;;;;;;;57.70;38.90;;;;;;;3.22;100.00;99078.44;182450;1238;46085;-81
2024/02/26 03:19:46;;;;;;;61.40;39.70;;;;;;;3.07;100.00;99079.30;182856;1235;44794;-82
2024/02/26 03:23:48;;;;;;;63.90;39.70;;;;;;;2.92;100.00;99076.25;181981;1235;46131;-83
2024/02/26 03:27:50;;;;;;;84.00;45.50;;;;;;;2.82;100.00;99074.70;182077;1235;59958;-83
2024/02/26 03:31:52;;;;;;;71.40;42.90;;;;;;;2.79;100.00;99074.38;182351;1235;46037;-83
2024/02/26 03:35:53;;;;;;;72.40;44.90;;;;;;;2.79;100.00;99074.52;183745;1235;45992;-83
2024/02/26 03:39:57;;;;;;;81.80;45.30;;;;;;;2.81;100.00;99074.23;184273;1235;44620;-84
2024/02/26 03:43:58;;;;;;;74.00;44.80;;;;;;;2.79;100.00;99072.46;182442;1235;45999;-84
2024/02/26 03:48:00;;;;;;;64.00;41.10;;;;;;;2.79;100.00;99069.83;182770;1235;58855;-82
2024/02/26 03:52:02;;;;;;;72.80;41.80;;;;;;;2.79;100.00;99073.70;183724;1236;46212;-84
2024/02/26 03:56:05;;;;;;;83.50;47.40;;;;;;;2.75;100.00;99080.77;183193;1238;46106;-83
2024/02/26 04:00:07;;;;;;;60.60;39.40;;;;;;;2.70;100.00;99077.21;182498;1238;45956;-83
2024/02/26 04:04:09;;;;;;;68.10;44.20;;;;;;;2.69;100.00;99080.61;182756;1236;45957;-83
2024/02/26 04:08:10;;;;;;;60.80;39.10;;;;;;;2.67;100.00;99079.38;182627;1235;59384;-82
2024/02/26 04:12:12;;;;;;;71.30;37.90;;;;;;;2.64;100.00;99085.20;182547;1235;46148;-82
2024/02/26 04:16:14;;;;;;;64.10;37.90;;;;;;;2.66;100.00;99086.45;183273;1235;44133;-81
2024/02/26 04:20:16;;;;;;;65.60;37.10;;;;;;;2.70;100.00;99082.89;182622;1238;46068;-85
2024/02/26 04:24:18;;;;;;;64.00;39.50;;;;;;;2.73;100.00;99083.38;183636;1235;45981;-84
2024/02/26 04:28:20;;;;;;;62.60;35.30;;;;;;;2.73;100.00;99083.36;185062;1236;57890;-83
2024/02/26 04:32:22;;;;;;;52.20;31.80;;;;;;;2.72;100.00;99078.72;182510;1235;45948;-86
2024/02/26 04:36:25;;;;;;;54.20;34.10;;;;;;;2.69;100.00;99085.71;182356;1235;45956;-84
2024/02/26 04:40:27;;;;;;;54.00;35.50;;;;;;;2.69;100.00;99084.33;182594;1238;46067;-87
2024/02/26 04:44:30;;;;;;;54.80;35.80;;;;;;;2.70;100.00;99081.29;182482;1235;46084;-87
2024/02/26 04:48:31;;;;;;;63.60;34.10;;;;;;;2.73;100.00;99082.47;182127;1235;59177;-84
2024/02/26 04:52:33;;;;;;;58.10;35.10;;;;;;;2.80;100.00;99088.71;182731;1236;46052;-87
2024/02/26 04:56:35;;;;;;;54.60;34.00;;;;;;;2.85;100.00;99081.88;182858;1235;46180;-88
2024/02/26 05:00:37;;;;;;;49.70;35.10;;;;;;;2.92;100.00;99078.92;182211;1235;46184;-87
2024/02/26 05:04:39;;;;;;;49.00;28.90;;;;;;;2.94;100.00;99081.57;182751;1235;46068;-88
2024/02/26 05:08:43;;;;;;;56.10;35.60;;;;;;;2.83;100.00;99080.90;183535;1235;59520;-92
2024/02/26 05:12:46;;;;;;;60.00;37.10;;;;;;;2.80;100.00;99076.60;183007;1238;45979;-87
2024/02/26 05:16:48;;;;;;;61.40;36.00;;;;;;;2.81;100.00;99077.40;183331;1234;45923;-81
2024/02/26 05:20:49;;;;;;;62.50;33.60;;;;;;;2.78;100.00;99077.95;182431;1235;45119;-85
2024/02/26 05:24:52;;;;;;;67.50;39.40;;;;;;;2.73;100.00;99078.46;184399;1235;45999;-86
2024/02/26 05:28:59;;;;;;;60.10;35.40;;;;;;;2.69;100.00;99077.46;183060;1235;58696;-86
2024/02/26 05:33:00;;;;;;;60.10;36.00;;;;;;;2.72;100.00;99083.76;183483;1238;46074;-87
2024/02/26 05:37:03;;;;;;;57.00;37.90;;;;;;;2.78;100.00;99088.13;182441;1235;46073;-86
2024/02/26 05:41:05;;;;;;;57.80;36.40;;;;;;;2.84;100.00;99093.83;182667;1236;45950;-85
2024/02/26 05:45:07;;;;;;;64.20;40.20;;;;;;;2.88;100.00;99097.56;182828;1238;46223;-86
2024/02/26 05:49:09;;;;;;;63.30;41.20;;;;;;;2.94;100.00;99096.78;184387;1234;57998;-86
2024/02/26 05:53:11;;;;;;;58.20;39.70;;;;;;;2.90;100.00;99100.59;185059;1235;45989;-84
2024/02/26 05:57:13;;;;;;;60.40;36.80;;;;;;;2.88;100.00;99095.15;182309;1235;45960;-87
2024/02/26 06:01:19;;;;;;;61.30;39.40;;;;;;;2.83;100.00;99098.91;185547;1235;44428;-84
2024/02/26 06:05:21;;;;;;;60.20;37.10;;;;;;;2.82;100.00;99101.28;184501;1235;44087;-85
2024/02/26 06:09:23;;;;;;;54.40;35.10;;;;;;;2.81;100.00;99097.55;185026;1235;57997;-87
2024/02/26 06:13:25;;;;;;;56.80;34.90;;;;;;;2.82;100.00;99094.84;183055;1234;45951;-87
2024/02/26 06:17:27;;;;;;;59.60;37.50;;;;;;;2.84;100.00;99097.67;182581;1235;43995;-87
2024/02/26 06:21:29;;;;;;;59.70;36.10;;;;;;;2.92;100.00;99097.15;183030;1235;46038;-84
2024/02/26 06:25:31;;;;;;;45.70;31.50;;;;;;;3.03;100.00;99101.96;183272;1235;45990;-87
2024/02/26 06:29:33;;;;;;;49.80;34.10;;;;;;;3.14;100.00;99107.88;182584;1238;58188;-81
2024/02/26 06:33:34;;;;;;;68.20;47.90;;;;;;;3.21;100.00;99110.88;182465;1238;46075;-83
2024/02/26 06:37:37;;;;;;;53.10;37.30;;;;;;;3.25;100.00;99109.88;183066;1234;46071;-86
2024/02/26 06:41:39;;;;;;;53.90;37.00;;;;;;;3.28;100.00;99117.42;183925;1238;45955;-85
2024/02/26 06:45:41;;;;;;;52.10;36.50;;;;;;;3.29;100.00;99117.52;182307;1234;46375;-87
2024/02/26 06:49:43;;;;;;;76.80;53.70;;;;;;;3.39;100.00;99115.10;184640;1235;59253;-86
2024/02/26 06:53:46;;;;;;;67.80;46.60;;;;;;;3.54;100.00;99117.02;182259;1234;44402;-84
2024/02/26 06:57:47;;;;;;;80.30;60.90;;;;;;;3.77;100.00;99120.79;182281;1235;45947;-83
2024/02/26 07:01:49;;;;;;;71.20;57.90;;;;;;;4.08;100.00;99126.65;182230;1235;45605;-86
2024/02/26 07:05:51;;;;;;;55.50;39.20;;;;;;;4.32;100.00;99126.80;183090;1236;46093;-85
2024/02/26 07:09:55;;;;;;;47.30;34.90;;;;;;;4.43;100.00;99133.90;182116;1238;57986;-84
2024/02/26 07:13:57;;;;;;;55.00;37.20;;;;;;;4.50;100.00;99138.11;183605;1238;46088;-87
2024/02/26 07:18:02;;;;;;;48.10;34.90;;;;;;;4.47;100.00;99146.23;182361;1236;46640;-86
2024/02/26 07:22:04;;;;;;;42.10;28.20;;;;;;;4.52;100.00;99139.20;182332;1238;45970;-86
2024/02/26 07:26:08;;;;;;;54.90;34.60;;;;;;;4.47;100.00;99139.42;182699;1236;45950;-85
2024/02/26 07:30:10;;;;;;;44.50;31.40;;;;;;;4.50;100.00;99139.52;182160;1235;59453;-83
2024/02/26 07:34:12;;;;;;;54.70;36.00;;;;;;;4.42;100.00;99141.15;182531;1235;46104;-84
2024/02/26 07:38:14;;;;;;;49.60;35.80;;;;;;;4.61;100.00;99142.04;182426;1237;46160;-87
2024/02/26 07:42:32;;;;;;;53.00;39.50;;;;;;;4.84;100.00;99145.10;182548;1235;46086;-83
2024/02/26 07:46:35;;;;;;;44.40;33.20;;;;;;;5.11;100.00;99150.44;182039;1236;46077;-86
2024/02/26 07:50:37;;;;;;;41.60;30.10;;;;;;;5.28;100.00;99148.75;182165;1235;59398;-84
2024/02/26 07:54:38;;;;;;;50.40;34.70;;;;;;;5.41;100.00;99149.52;182205;1236;46087;-85
2024/02/26 07:58:40;;;;;;;49.90;33.30;;;;;;;5.67;100.00;99145.19;182350;1238;46168;-87
2024/02/26 08:02:43;;;;;;;53.70;35.20;;;;;;;5.92;100.00;99149.55;182295;1235;46547;-85
2024/02/26 08:06:45;;;;;;;46.70;27.00;;;;;;;6.15;100.00;99147.77;182068;1238;45967;-86
2024/02/26 08:10:47;;;;;;;46.40;31.20;;;;;;;6.25;100.00;99149.58;183093;1235;59238;-86
2024/02/26 08:14:49;;;;;;;38.50;26.00;;;;;;;6.42;100.00;99149.40;182569;1235;46081;-87
2024/02/26 08:18:51;;;;;;;46.90;31.40;;;;;;;6.44;100.00;99146.05;182327;1237;46040;-86
2024/02/26 08:22:53;;;;;;;40.20;26.70;;;;;;;6.70;100.00;99142.86;182735;1235;44587;-86
2024/02/26 08:26:54;;;;;;;43.10;29.80;;;;;;;6.63;100.00;99138.20;182281;1235;46213;-86
2024/02/26 08:30:56;;;;;;;39.80;28.50;;;;;;;6.79;100.00;99136.52;182952;1236;59115;-84
2024/02/26 08:34:58;;;;;;;46.10;26.20;;;;;;;6.92;100.00;99141.76;182444;1235;46111;-85
2024/02/26 08:39:00;;;;;;;45.10;31.00;;;;;;;7.12;100.00;99145.17;182621;1236;46097;-87
2024/02/26 08:43:02;;;;;;;45.60;27.70;;;;;;;7.40;100.00;99143.52;182383;1235;45961;-87
2024/02/26 08:47:04;;;;;;;42.90;28.50;;;;;;;7.65;100.00;99144.55;182400;1236;46173;-82
2024/02/26 08:51:07;;;;;;;45.40;31.00;;;;;;;7.77;100.00;99140.09;182437;1235;58033;-87
2024/02/26 08:55:09;;;;;;;33.20;24.00;;;;;;;7.85;100.00;99133.56;182053;1235;46176;-87
2024/02/26 08:59:10;;;;;;;41.30;26.10;;;;;;;8.08;100.00;99125.58;182464;1235;46686;-86
2024/02/26 09:03:12;;;;;;;39.80;26.80;;;;;;;8.30;100.00;99121.98;182242;1234;46065;-86
2024/02/26 09:07:14;;;;;;;38.10;27.10;;;;;;;8.56;100.00;99120.73;182755;1235;46028;-85
2024/02/26 09:11:16;;;;;;;34.20;25.80;;;;;;;8.79;100.00;99115.77;182335;1235;59484;-86
2024/02/26 09:15:18;;;;;;;35.90;26.60;;;;;;;9.00;100.00;99113.12;182655;1236;44779;-85
2024/02/26 09:19:20;;;;;;;49.60;28.20;;;;;;;9.21;100.00;99110.48;182494;1238;45967;-85
2024/02/26 09:23:22;;;;;;;32.50;23.70;;;;;;;9.39;100.00;99111.23;182188;1238;46053;-85
2024/02/26 09:27:23;;;;;;;33.70;25.50;;;;;;;9.57;100.00;99120.34;182597;1237;45988;-83
2024/02/26 09:31:25;;;;;;;32.00;24.70;;;;;;;9.71;100.00;99122.06;182498;1238;59262;-86
2024/02/26 09:35:27;;;;;;;35.60;25.30;;;;;;;9.94;100.00;99121.79;182312;1235;46100;-89
2024/02/26 09:39:29;;;;;;;33.20;23.60;;;;;;;10.17;100.00;99125.92;182595;1235;45951;-83
2024/02/26 09:43:39;;;;;;;32.30;22.60;;;;;;;10.30;100.00;99126.97;182161;1235;45970;-86
2024/02/26 09:47:42;;;;;;;29.00;21.70;;;;;;;10.48;100.00;99132.43;182257;1235;46129;-83
2024/02/26 09:51:44;;;;;;;29.50;17.70;;;;;;;10.64;100.00;99127.00;182579;1234;59094;-85
2024/02/26 09:55:46;;;;;;;26.40;17.00;;;;;;;10.88;100.00;99127.90;182451;1235;46056;-84
2024/02/26 09:59:51;;;;;;;23.70;16.90;;;;;;;11.11;100.00;99126.17;182445;1238;45973;-85
2024/02/26 10:03:56;;;;;;;25.70;18.00;;;;;;;11.30;99.93;99125.08;182535;1236;46061;-85
2024/02/26 10:08:01;;;;;;;22.40;15.60;;;;;;;11.51;99.29;99124.57;182346;1236;46002;-86
2024/02/26 10:12:04;;;;;;;21.60;17.80;;;;;;;11.64;98.87;99126.08;182065;1235;58063;-86
2024/02/26 10:16:07;;;;;;;28.00;18.90;;;;;;;11.74;96.63;99120.95;182580;1235;45970;-84
2024/02/26 10:20:17;;;;;;;20.90;15.30;;;;;;;11.82;97.05;99117.81;182550;1235;45960;-85
2024/02/26 10:24:19;;;;;;;25.00;15.90;;;;;;;11.87;95.17;99124.02;183241;1238;45964;-85
2024/02/26 10:28:22;;;;;;;19.40;15.50;;;;;;;11.87;94.48;99123.64;182023;1238;46094;-85
2024/02/26 10:32:24;;;;;;;24.50;15.10;;;;;;;11.92;94.83;99124.73;183044;1235;58665;-83
2024/02/26 10:36:26;;;;;;;20.00;16.30;;;;;;;11.98;93.95;99119.30;182451;1235;46083;-85
2024/02/26 10:40:39;;;;;;;21.40;15.40;;;;;;;12.00;94.19;99120.13;182682;1235;46063;-85
2024/02/26 10:44:42;;;;;;;22.40;16.50;;;;;;;11.94;93.42;99118.10;182496;1235;45858;-85
2024/02/26 10:48:51;;;;;;;22.30;16.90;;;;;;;11.83;93.93;99121.52;182952;1235;45913;-81
2024/02/26 10:52:55;;;;;;;19.00;14.80;;;;;;;11.83;93.94;99113.25;182793;1238;59118;-85
2024/02/26 10:56:58;;;;;;;20.00;14.40;;;;;;;11.92;95.44;99108.60;182485;1235;45999;-85
2024/02/26 11:01:00;;;;;;;20.20;14.80;;;;;;;11.98;95.88;99108.51;182253;1235;46165;-84
2024/02/26 11:05:03;;;;;;;19.20;14.20;;;;;;;11.86;95.90;99106.82;182582;1235;46111;-86
2024/02/26 11:09:08;;;;;;;18.30;13.10;;;;;;;11.90;97.31;99109.27;182296;1237;45999;-85
2024/02/26 11:13:13;;;;;;;24.90;18.60;;;;;;;11.94;97.67;99101.02;183414;1234;59125;-86
2024/02/26 11:17:19;;;;;;;22.60;14.00;;;;;;;12.08;94.99;99100.73;182073;1238;45928;-85
2024/02/26 11:21:38;;;;;;;21.20;13.10;;;;;;;12.23;95.04;99095.15;182559;1235;46140;-86
2024/02/26 11:25:40;;;;;;;21.20;14.60;;;;;;;12.29;94.29;99087.21;182170;1236;189009;-83
2024/02/26 11:29:47;;;;;;;18.50;13.90;;;;;;;12.38;94.89;99085.91;182198;1239;45963;-85
2024/02/26 11:33:49;;;;;;;16.60;12.40;;;;;;;12.31;92.26;99087.41;182611;1238;58017;-86
2024/02/26 11:37:56;;;;;;;19.30;15.20;;;;;;;12.23;90.94;99087.74;182214;1238;44217;-86
2024/02/26 11:42:05;;;;;;;21.30;14.80;;;;;;;12.22;92.36;99090.19;183219;1234;46038;-86
2024/02/26 11:46:25;;;;;;;18.50;12.90;;;;;;;12.23;93.50;99087.68;182369;1236;46470;-83
2024/02/26 11:50:40;;;;;;;19.10;12.40;;;;;;;12.25;94.42;99089.78;182160;1236;45965;-85
2024/02/26 11:54:52;;;;;;;19.30;12.70;;;;;;;12.27;95.01;99090.67;182401;1234;58036;-86
2024/02/26 11:58:57;;;;;;;16.10;12.70;;;;;;;12.29;96.04;99087.04;182233;1238;46053;-86
2024/02/26 12:03:02;;;;;;;23.20;14.70;;;;;;;12.28;96.08;99086.11;183490;1235;44027;-86
2024/02/26 12:07:05;;;;;;;18.00;14.50;;;;;;;12.34;97.08;99087.21;182097;1235;46051;-86
2024/02/26 12:11:15;;;;;;;21.60;15.30;;;;;;;12.41;97.54;99083.32;182868;1235;46096;-84
2024/02/26 12:15:19;;;;;;;19.00;13.80;;;;;;;12.50;97.06;99084.27;182566;1235;59410;-85
2024/02/26 12:19:22;;;;;;;19.90;14.10;;;;;;;12.57;96.27;99082.77;182194;1238;45984;-85
2024/02/26 12:23:24;;;;;;;16.70;11.30;;;;;;;12.66;95.36;99080.95;182284;1235;45975;-86
2024/02/26 12:27:25;;;;;;;15.50;11.80;;;;;;;12.69;94.53;99083.65;182911;1235;45893;-87
2024/02/26 12:31:28;;;;;;;14.40;11.70;;;;;;;12.76;95.24;99083.98;182468;1235;45973;-85
2024/02/26 12:35:31;;;;;;;18.80;12.80;;;;;;;12.91;95.49;99085.69;182314;1236;59249;-85
2024/02/26 12:39:33;;;;;;;14.80;10.50;;;;;;;13.02;95.81;99089.82;182988;1238;46028;-85
2024/02/26 12:43:35;;;;;;;12.50;8.70;;;;;;;13.08;94.43;99092.55;183109;1237;46091;-86
2024/02/26 12:47:39;;;;;;;15.80;10.60;;;;;;;13.09;92.64;99088.47;182751;1235;46018;-84
2024/02/26 12:51:41;;;;;;;13.60;8.80;;;;;;;13.11;92.44;99090.63;182326;1235;45961;-85
2024/02/26 12:55:43;;;;;;;11.10;8.70;;;;;;;13.20;91.05;99087.63;182466;1234;58246;-85
2024/02/26 12:59:46;;;;;;;13.10;9.60;;;;;;;13.25;89.54;99084.58;182049;1238;46111;-84
2024/02/26 13:03:49;;;;;;;12.90;8.50;;;;;;;13.31;88.21;99083.81;182806;1237;46210;-83
2024/02/26 13:07:52;;;;;;;10.50;7.70;;;;;;;13.36;88.47;99088.02;183256;1235;44178;-86
2024/02/26 13:11:55;;;;;;;10.70;6.90;;;;;;;13.39;88.30;99090.48;182202;1236;45951;-86
2024/02/26 13:16:07;;;;;;;16.00;8.70;;;;;;;13.46;88.44;99092.30;181969;1239;59481;-85
2024/02/26 13:20:10;;;;;;;10.60;8.60;;;;;;;13.53;87.98;99096.47;182078;1236;46028;-85
2024/02/26 13:24:13;;;;;;;9.70;7.00;;;;;;;13.61;88.17;99095.10;182944;1236;46096;-83
2024/02/26 13:28:17;;;;;;;11.90;7.90;;;;;;;13.68;87.62;99097.80;181857;1238;44095;-84
2024/02/26 13:32:20;;;;;;;12.80;7.00;;;;;;;13.77;87.74;99098.21;182152;1235;46164;-86
2024/02/26 13:36:23;;;;;;;9.10;6.50;;;;;;;13.86;86.93;99097.38;182268;1238;58041;-85
2024/02/26 13:40:25;;;;;;;16.60;7.30;;;;;;;13.95;85.39;99099.63;182013;1235;46007;-84
2024/02/26 13:44:27;;;;;;;9.50;6.90;;;;;;;14.01;84.56;99098.38;182868;1235;45947;-86
2024/02/26 13:48:28;;;;;;;11.50;6.80;;;;;;;14.06;83.96;99093.26;181985;1236;46092;-86
2024/02/26 13:52:32;;;;;;;8.90;6.90;;;;;;;14.11;83.51;99095.23;182676;1235;45139;-86
2024/02/26 13:56:35;;;;;;;11.50;6.30;;;;;;;14.12;80.89;99095.05;182529;1238;59268;-85
2024/02/26 14:00:37;;;;;;;11.40;7.50;;;;;;;14.09;79.79;99093.88;182112;1238;45220;-85
2024/02/26 14:04:39;;;;;;;10.10;7.40;;;;;;;14.06;81.03;99101.15;183103;1238;46056;-86
2024/02/26 14:08:40;;;;;;;15.10;7.10;;;;;;;14.02;81.27;99100.95;184164;1235;46089;-81
2024/02/26 14:12:42;;;;;;;6.10;4.20;;;;;;;14.00;80.98;99098.45;183066;1239;44148;-81
2024/02/26 14:16:44;;;;;;;12.30;5.70;;;;;;;14.03;81.50;99098.70;183781;1235;58057;-81
2024/02/26 14:20:46;;;;;;;39.50;26.70;;;;;;;14.04;81.69;99104.47;183763;1234;46202;-81
2024/02/26 14:24:48;;;;;;;95.50;58.10;;;;;;;14.09;82.43;99104.24;183358;1235;46053;-81
2024/02/26 14:28:49;;;;;;;22.50;15.20;;;;;;;14.15;83.30;99103.98;184049;1235;45959;-81
2024/02/26 14:32:51;;;;;;;8.50;6.80;;;;;;;14.22;83.51;99109.52;184229;1235;44502;-81
2024/02/26 14:36:53;;;;;;;7.80;6.10;;;;;;;14.25;83.12;99110.34;182942;1235;59883;-81
2024/02/26 14:40:55;;;;;;;10.50;6.00;;;;;;;14.29;83.74;99107.40;182789;1235;46036;-80
2024/02/26 14:44:57;;;;;;;11.10;8.50;;;;;;;14.32;83.61;99107.61;182906;1236;46000;-81
2024/02/26 14:48:59;;;;;;;13.70;9.20;;;;;;;14.33;83.03;99105.69;182551;1238;44545;-81
2024/02/26 14:53:02;;;;;;;21.50;13.00;;;;;;;14.30;82.26;99111.77;182661;1236;45986;-81
2024/02/26 14:57:05;;;;;;;16.40;9.50;;;;;;;14.25;82.21;99114.45;182729;1235;58375;-81
2024/02/26 15:01:07;;;;;;;17.80;12.50;;;;;;;14.18;82.03;99116.19;183410;1235;46087;-81
2024/02/26 15:05:11;;;;;;;31.20;13.20;;;;;;;14.07;82.48;99110.59;183175;1239;45971;-80
2024/02/26 15:09:12;;;;;;;21.40;14.40;;;;;;;13.97;83.09;99114.44;183882;1235;43985;-81
2024/02/26 15:13:15;;;;;;;20.30;13.20;;;;;;;13.87;83.08;99123.41;183356;1235;45977;-81
2024/02/26 15:17:17;;;;;;;16.60;12.20;;;;;;;13.77;83.22;99118.70;183691;1235;57903;-81
2024/02/26 15:21:19;;;;;;;21.30;14.90;;;;;;;13.66;83.26;99119.71;182857;1235;45954;-82
2024/02/26 15:25:21;;;;;;;56.90;35.30;;;;;;;13.59;83.70;99124.52;183788;1235;46077;-81
2024/02/26 15:29:22;;;;;;;126.50;73.90;;;;;;;13.51;83.56;99126.11;183396;1239;45954;-81
2024/02/26 15:33:24;;;;;;;26.80;16.60;;;;;;;13.44;83.83;99129.73;184679;1235;44004;-80
2024/02/26 15:37:26;;;;;;;13.90;8.40;;;;;;;13.39;83.85;99134.17;183917;1234;57995;-80
2024/02/26 15:41:28;;;;;;;13.60;10.50;;;;;;;13.30;84.65;99136.56;184126;1236;45977;-79
2024/02/26 15:45:32;;;;;;;16.80;12.40;;;;;;;13.20;84.89;99143.73;183471;1235;46087;-81
2024/02/26 15:49:34;;;;;;;21.10;13.60;;;;;;;13.10;85.20;99147.99;184320;1235;45896;-81
2024/02/26 15:53:37;;;;;;;21.60;12.90;;;;;;;13.04;85.37;99151.09;183609;1235;46089;-81
2024/02/26 15:57:40;;;;;;;18.20;12.30;;;;;;;12.98;85.55;99160.87;183332;1235;59959;-81
2024/02/26 16:01:44;;;;;;;28.80;16.70;;;;;;;12.92;86.71;99167.81;182922;1235;46079;-81
2024/02/26 16:05:46;;;;;;;24.60;15.40;;;;;;;12.86;87.74;99167.35;183202;1238;46187;-80
2024/02/26 16:09:54;;;;;;;13.60;10.30;;;;;;;12.67;90.55;99172.45;183556;1238;46097;-80
2024/02/26 16:14:32;;;;;;;11.70;8.30;;;;;;;12.37;92.58;99176.71;183998;1235;45985;-81
2024/02/26 16:18:35;;;;;;;18.60;9.00;;;;;;;12.12;95.87;99179.36;181643;1241;58428;-81
2024/02/26 16:22:38;;;;;;;50.40;30.60;;;;;;;11.97;98.20;99181.42;182392;1245;46204;-80
2024/02/26 16:26:39;;;;;;;48.20;28.80;;;;;;;11.83;97.51;99184.85;181946;1241;44100;-81
2024/02/26 16:30:41;;;;;;;42.90;24.50;;;;;;;11.81;96.38;99180.59;182394;1241;46185;-81
2024/02/26 16:34:43;;;;;;;45.80;28.90;;;;;;;11.88;96.42;99185.71;182569;1244;46107;-81
2024/02/26 16:38:45;;;;;;;42.30;24.40;;;;;;;11.91;96.95;99183.14;182822;1241;58093;-80
2024/02/26 16:42:47;;;;;;;33.80;22.50;;;;;;;11.81;97.74;99183.82;181611;1242;46019;-80
2024/02/26 16:46:48;;;;;;;33.10;21.80;;;;;;;11.68;97.54;99194.55;181864;1243;46315;-81
2024/02/26 16:50:50;;;;;;;36.90;24.80;;;;;;;11.59;98.24;99198.30;181867;1242;45931;-81
2024/02/26 16:54:55;;;;;;;29.20;17.80;;;;;;;11.52;99.73;99202.77;182938;1236;45899;-81
2024/02/26 16:58:56;;;;;;;45.60;18.70;;;;;;;11.41;100.00;99205.64;183790;1237;59581;-81
2024/02/26 17:03:00;;;;;;;21.70;15.40;;;;;;;11.32;100.00;99213.66;182635;1235;46777;-80
2024/02/26 17:07:02;;;;;;;31.70;20.00;;;;;;;11.21;100.00;99217.09;183223;1234;44979;-82
2024/02/26 17:11:04;;;;;;;31.90;19.40;;;;;;;11.19;100.00;99222.37;183421;1236;46056;-80
2024/02/26 17:15:06;;;;;;;35.50;22.70;;;;;;;11.16;100.00;99222.91;183097;1235;46068;-82
2024/02/26 17:19:08;;;;;;;41.20;25.10;;;;;;;11.14;100.00;99227.30;182492;1238;57959;-81
2024/02/26 17:23:11;;;;;;;33.10;21.90;;;;;;;11.11;100.00;99234.20;182442;1239;46021;-82
2024/02/26 17:27:13;;;;;;;31.70;21.40;;;;;;;11.08;100.00;99235.52;183767;1238;45854;-81
2024/02/26 17:31:17;;;;;;;28.20;22.20;;;;;;;11.01;100.00;99244.30;183318;1237;46039;-81
2024/02/26 17:35:19;;;;;;;37.60;24.00;;;;;;;10.93;100.00;99253.15;183054;1237;45950;-80
2024/02/26 17:39:21;;;;;;;33.30;23.00;;;;;;;10.94;100.00;99257.88;181895;1235;59276;-80
2024/02/26 17:43:23;;;;;;;39.50;25.80;;;;;;;10.98;100.00;99263.50;184066;1234;46035;-80
2024/02/26 17:47:25;;;;;;;36.30;25.40;;;;;;;10.97;100.00;99268.38;181916;1237;46211;-79
2024/02/26 17:51:27;;;;;;;35.20;24.90;;;;;;;10.97;100.00;99268.58;182104;1234;46141;-80
2024/02/26 17:55:28;;;;;;;29.60;21.50;;;;;;;10.94;100.00;99270.71;184145;1238;46697;-80
2024/02/26 17:59:31;;;;;;;31.20;21.60;;;;;;;10.91;100.00;99280.04;183145;1235;59313;-80
2024/02/26 18:03:33;;;;;;;41.70;25.60;;;;;;;10.87;100.00;99285.20;184187;1238;45976;-80
2024/02/26 18:07:35;;;;;;;39.90;23.00;;;;;;;10.78;100.00;99289.47;183679;1238;44173;-81
2024/02/26 18:11:38;;;;;;;31.70;23.10;;;;;;;10.68;100.00;99290.06;184201;1235;45876;-80
2024/02/26 18:15:40;;;;;;;31.30;21.80;;;;;;;10.57;100.00;99291.62;184250;1235;46052;-80
2024/02/26 18:19:41;;;;;;;37.50;25.70;;;;;;;10.54;100.00;99290.91;184804;1235;59059;-81
2024/02/26 18:23:43;;;;;;;41.00;27.90;;;;;;;10.50;100.00;99296.42;183696;1238;46020;-80